createdAt,value
2018-06-19T00:01:38.108Z,64.50
2018-06-19T00:04:05.682Z,65.00
2018-06-19T00:06:33.224Z,65.00
2018-06-19T00:09:00.772Z,65.10
2018-06-19T00:11:28.367Z,64.90
2018-06-19T00:13:55.845Z,65.10
2018-06-19T00:16:23.398Z,65.70
2018-06-19T00:18:54.191Z,65.80
2018-06-19T00:21:26.909Z,65.30
2018-06-19T00:23:54.533Z,65.20
2018-06-19T00:26:22.113Z,65.70
2018-06-19T00:28:49.663Z,66.10
2018-06-19T00:31:17.275Z,66.20
2018-06-19T00:33:44.838Z,66.20
2018-06-19T00:36:12.286Z,66.50
2018-06-19T00:38:39.842Z,66.20
2018-06-19T00:41:07.392Z,66.00
2018-06-19T00:43:35.018Z,66.70
2018-06-19T00:46:02.865Z,67.70
2018-06-19T00:48:30.375Z,67.10
2018-06-19T00:50:58.140Z,67.40
2018-06-19T00:53:25.708Z,67.50
2018-06-19T00:55:53.291Z,67.00
2018-06-19T00:58:20.840Z,67.10
2018-06-19T01:00:48.341Z,67.70
2018-06-19T01:03:15.910Z,67.40
2018-06-19T01:05:43.439Z,67.30
2018-06-19T01:08:11.036Z,67.80
2018-06-19T01:10:38.610Z,67.50
2018-06-19T01:13:06.225Z,67.80
2018-06-19T01:15:33.716Z,68.20
2018-06-19T01:18:01.235Z,67.60
2018-06-19T01:20:28.887Z,68.50
2018-06-19T01:22:56.483Z,68.90
2018-06-19T01:25:24.018Z,68.60
2018-06-19T01:27:51.560Z,67.80
2018-06-19T01:30:21.257Z,68.70
2018-06-19T01:32:48.877Z,68.00
2018-06-19T01:35:16.438Z,68.60
2018-06-19T01:37:43.941Z,68.60
2018-06-19T01:40:11.395Z,68.60
2018-06-19T01:42:38.978Z,68.90
2018-06-19T01:45:06.513Z,69.20
2018-06-19T01:47:34.044Z,68.90
2018-06-19T01:50:01.566Z,69.10
2018-06-19T01:52:29.147Z,69.10
2018-06-19T01:54:56.687Z,69.10
2018-06-19T01:57:24.137Z,69.40
2018-06-19T01:59:51.719Z,69.70
2018-06-19T02:02:19.288Z,69.90
2018-06-19T02:04:46.731Z,69.50
2018-06-19T02:07:14.268Z,69.60
2018-06-19T02:09:41.731Z,69.50
2018-06-19T02:12:09.246Z,69.30
2018-06-19T02:14:36.786Z,69.40
2018-06-19T02:17:04.275Z,69.40
2018-06-19T02:19:31.802Z,69.00
2018-06-19T02:21:59.434Z,69.00
2018-06-19T02:24:27.036Z,69.80
2018-06-19T02:26:54.647Z,70.20
2018-06-19T02:29:22.247Z,70.20
2018-06-19T02:31:49.783Z,69.80
2018-06-19T02:34:17.329Z,70.10
2018-06-19T02:36:44.889Z,70.10
2018-06-19T02:39:12.424Z,70.40
2018-06-19T02:41:40.252Z,70.40
2018-06-19T02:44:08.146Z,70.00
2018-06-19T02:46:35.839Z,70.30
2018-06-19T02:49:03.570Z,70.00
2018-06-19T02:51:31.136Z,71.10
2018-06-19T02:53:58.819Z,70.70
2018-06-19T02:56:26.389Z,71.10
2018-06-19T02:58:53.940Z,70.40
2018-06-19T03:01:21.523Z,71.40
2018-06-19T03:03:49.054Z,72.10
2018-06-19T03:06:17.698Z,70.90
2018-06-19T03:08:45.189Z,71.90
2018-06-19T03:11:12.696Z,70.80
2018-06-19T03:13:40.349Z,70.80
2018-06-19T03:16:08.061Z,71.00
2018-06-19T03:18:35.678Z,71.20
2018-06-19T03:21:03.291Z,71.50
2018-06-19T03:23:30.886Z,71.70
2018-06-19T03:25:58.468Z,71.30
2018-06-19T03:28:30.530Z,71.70
2018-06-19T03:30:58.102Z,71.60
2018-06-19T03:33:25.640Z,71.50
2018-06-19T03:35:53.194Z,71.50
2018-06-19T03:38:20.745Z,71.60
2018-06-19T03:40:48.397Z,71.30
2018-06-19T03:43:15.926Z,71.70
2018-06-19T03:45:43.472Z,71.30
2018-06-19T03:48:11.004Z,71.70
2018-06-19T03:50:38.587Z,71.80
2018-06-19T03:53:10.240Z,71.80
2018-06-19T03:55:37.834Z,72.30
2018-06-19T03:58:05.730Z,72.10
2018-06-19T04:00:33.359Z,72.10
2018-06-19T04:03:01.025Z,72.10
2018-06-19T04:05:28.538Z,72.20
2018-06-19T04:07:57.161Z,72.00
2018-06-19T04:10:24.664Z,71.40
2018-06-19T04:12:52.287Z,71.60
2018-06-19T04:15:20.083Z,71.60
2018-06-19T04:17:47.792Z,71.80
2018-06-19T04:20:15.565Z,72.20
2018-06-19T04:22:43.139Z,72.20
2018-06-19T04:25:11.168Z,72.40
2018-06-19T04:27:39.116Z,71.90
2018-06-19T04:30:06.779Z,70.80
2018-06-19T04:32:34.314Z,70.30
2018-06-19T04:35:01.867Z,69.50
2018-06-19T04:37:29.448Z,69.20
2018-06-19T04:39:58.012Z,68.90
2018-06-19T04:42:25.616Z,68.50
2018-06-19T04:44:53.207Z,68.20
2018-06-19T04:47:20.718Z,68.10
2018-06-19T04:49:48.246Z,67.70
2018-06-19T04:52:17.850Z,67.70
2018-06-19T04:54:45.371Z,67.80
2018-06-19T04:57:12.946Z,67.80
2018-06-19T04:59:40.452Z,67.70
2018-06-19T05:02:15.269Z,67.70
2018-06-19T05:04:42.844Z,67.80
2018-06-19T05:07:10.350Z,67.80
2018-06-19T05:09:37.834Z,67.70
2018-06-19T05:12:05.383Z,67.50
2018-06-19T05:14:32.981Z,67.60
2018-06-19T05:17:00.625Z,67.80
2018-06-19T05:19:29.166Z,67.80
2018-06-19T05:21:56.698Z,67.80
2018-06-19T05:24:24.437Z,68.00
2018-06-19T05:26:51.968Z,68.90
2018-06-19T05:29:19.758Z,68.20
2018-06-19T05:31:47.254Z,68.30
2018-06-19T05:34:14.852Z,68.20
2018-06-19T05:36:42.330Z,68.10
2018-06-19T05:39:10.798Z,68.00
2018-06-19T05:41:38.470Z,68.30
2018-06-19T05:44:07.158Z,67.90
2018-06-19T05:46:35.289Z,67.80
2018-06-19T05:49:03.120Z,67.60
2018-06-19T05:51:30.872Z,67.80
2018-06-19T05:53:58.829Z,67.90
2018-06-19T05:56:26.870Z,67.60
2018-06-19T05:58:54.598Z,67.70
2018-06-19T06:01:22.323Z,68.30
2018-06-19T06:03:49.996Z,67.80
2018-06-19T06:06:29.354Z,67.70
2018-06-19T06:08:57.010Z,67.40
2018-06-19T06:11:24.660Z,67.40
2018-06-19T06:13:54.265Z,67.20
2018-06-19T06:16:21.926Z,66.90
2018-06-19T06:18:49.603Z,67.10
2018-06-19T06:24:10.673Z,67.00
2018-06-19T06:26:38.282Z,67.40
2018-06-19T06:29:06.935Z,67.30
2018-06-19T06:31:34.598Z,67.00
2018-06-19T06:34:02.299Z,67.10
2018-06-19T06:36:30.040Z,67.10
2018-06-19T06:38:57.771Z,67.70
2018-06-19T06:41:26.426Z,67.40
2018-06-19T06:43:54.096Z,67.30
2018-06-19T06:46:21.806Z,67.50
2018-06-19T06:48:49.409Z,67.40
2018-06-19T06:51:40.822Z,67.40
2018-06-19T06:54:08.513Z,67.60
2018-06-19T06:56:36.203Z,67.20
2018-06-19T06:59:04.039Z,67.00
2018-06-19T07:01:31.695Z,67.10
2018-06-19T07:03:59.360Z,67.10
2018-06-19T07:06:26.977Z,66.70
2018-06-19T07:08:54.665Z,66.90
2018-06-19T07:11:22.280Z,66.70
2018-06-19T07:13:49.895Z,66.90
2018-06-19T07:16:17.446Z,66.70
2018-06-19T07:18:45.075Z,67.40
2018-06-19T07:21:13.629Z,67.00
2018-06-19T07:23:41.174Z,66.90
2018-06-19T07:26:08.711Z,65.80
2018-06-19T07:28:36.326Z,65.90
2018-06-19T07:31:04.004Z,65.80
2018-06-19T07:33:31.596Z,66.80
2018-06-19T07:35:59.272Z,65.50
2018-06-19T07:38:26.888Z,66.10
2018-06-19T07:40:54.456Z,66.10
2018-06-19T07:43:21.978Z,66.20
2018-06-19T07:45:51.632Z,65.10
2018-06-19T07:48:19.236Z,65.20
2018-06-19T07:50:46.799Z,64.70
2018-06-19T07:53:14.316Z,65.10
2018-06-19T07:55:42.077Z,64.70
2018-06-19T07:58:09.642Z,64.60
2018-06-19T08:00:37.144Z,64.40
2018-06-19T08:03:04.910Z,65.20
2018-06-19T08:05:32.528Z,65.30
2018-06-19T08:08:00.055Z,63.60
2018-06-19T08:10:27.645Z,64.00
2018-06-19T08:12:55.237Z,63.00
2018-06-19T08:15:22.806Z,63.00
2018-06-19T08:17:50.427Z,64.10
2018-06-19T08:20:19.048Z,63.80
2018-06-19T08:22:46.685Z,62.60
2018-06-19T08:25:14.296Z,62.30
2018-06-19T08:27:42.009Z,62.20
2018-06-19T08:30:09.729Z,61.60
2018-06-19T08:32:38.538Z,61.40
2018-06-19T08:35:06.119Z,62.00
2018-06-19T08:37:33.806Z,61.10
2018-06-19T08:40:01.657Z,61.60
2018-06-19T08:42:29.211Z,61.50
2018-06-19T08:44:56.785Z,61.80
2018-06-19T08:47:24.385Z,61.00
2018-06-19T08:49:51.951Z,61.20
2018-06-19T08:52:19.598Z,61.20
2018-06-19T08:54:47.305Z,61.20
2018-06-19T08:57:14.883Z,61.10
2018-06-19T08:59:42.492Z,60.70
2018-06-19T09:02:10.262Z,60.80
2018-06-19T09:04:37.964Z,61.50
2018-06-19T09:07:05.788Z,60.60
2018-06-19T09:09:33.416Z,61.20
2018-06-19T09:12:01.162Z,60.20
2018-06-19T09:14:28.875Z,59.60
2018-06-19T09:16:56.670Z,60.60
2018-06-19T09:19:25.506Z,61.40
2018-06-19T09:21:53.105Z,62.00
2018-06-19T09:24:20.882Z,59.60
2018-06-19T09:26:48.508Z,59.20
2018-06-19T09:29:16.247Z,60.10
2018-06-19T09:31:43.954Z,60.20
2018-06-19T09:34:11.618Z,60.00
2018-06-19T09:36:39.424Z,60.60
2018-06-19T09:39:09.238Z,59.70
2018-06-19T09:41:37.163Z,58.10
2018-06-19T09:44:04.913Z,56.90
2018-06-19T09:46:32.876Z,57.10
2018-06-19T09:49:00.748Z,56.50
2018-06-19T09:51:28.476Z,56.00
2018-06-19T09:53:56.233Z,56.60
2018-06-19T09:56:25.950Z,57.00
2018-06-19T09:58:53.744Z,54.30
2018-06-19T10:01:21.932Z,56.20
2018-06-19T10:03:49.912Z,57.50
2018-06-19T10:06:17.810Z,56.90
2018-06-19T10:08:45.576Z,55.70
2018-06-19T10:11:13.613Z,56.30
2018-06-19T10:13:41.484Z,55.10
2018-06-19T10:16:09.306Z,57.00
2018-06-19T10:18:36.952Z,56.60
2018-06-19T10:21:04.807Z,56.20
2018-06-19T10:23:32.478Z,56.10
2018-06-19T10:26:02.312Z,55.10
2018-06-19T10:28:30.031Z,56.50
2018-06-19T10:30:57.746Z,55.10
2018-06-19T10:33:25.441Z,53.60
2018-06-19T10:35:53.121Z,52.10
2018-06-19T10:38:20.773Z,52.30
2018-06-19T10:40:48.325Z,54.20
2018-06-19T10:43:15.922Z,53.50
2018-06-19T10:45:43.553Z,54.70
2018-06-19T10:48:11.058Z,53.70
2018-06-19T10:50:38.571Z,53.70
2018-06-19T10:53:06.224Z,54.40
2018-06-19T10:55:33.747Z,54.20
2018-06-19T10:58:01.194Z,53.10
2018-06-19T11:00:38.539Z,53.80
2018-06-19T11:03:06.139Z,56.60
2018-06-19T11:05:33.698Z,53.70
2018-06-19T11:08:01.250Z,52.80
2018-06-19T11:10:28.862Z,52.20
2018-06-19T11:12:56.461Z,52.80
2018-06-19T11:15:23.982Z,53.60
2018-06-19T11:17:53.592Z,51.90
2018-06-19T11:20:21.193Z,52.30
2018-06-19T11:23:00.418Z,52.10
2018-06-19T11:25:28.131Z,51.20
2018-06-19T11:27:55.808Z,52.30
2018-06-19T11:30:23.368Z,53.00
2018-06-19T11:32:51.026Z,55.70
2018-06-19T11:35:18.651Z,53.60
2018-06-19T11:37:46.260Z,52.50
2018-06-19T11:40:13.896Z,51.90
2018-06-19T11:42:41.344Z,53.00
2018-06-19T11:45:08.867Z,51.00
2018-06-19T11:47:36.495Z,50.60
2018-06-19T11:50:07.743Z,50.30
2018-06-19T11:52:35.398Z,46.90
2018-06-19T11:55:03.051Z,48.60
2018-06-19T11:57:30.664Z,48.50
2018-06-19T12:00:04.367Z,48.20
2018-06-19T12:02:31.940Z,48.20
2018-06-19T12:04:59.545Z,47.90
2018-06-19T12:07:31.782Z,46.60
2018-06-19T12:10:16.185Z,46.40
2018-06-19T12:12:43.846Z,46.40
2018-06-19T12:15:11.423Z,48.60
2018-06-19T12:17:38.971Z,45.80
2018-06-19T12:20:07.486Z,46.30
2018-06-19T12:22:35.324Z,48.60
2018-06-19T12:25:03.078Z,49.30
2018-06-19T12:27:30.672Z,48.30
2018-06-19T12:29:58.356Z,48.10
2018-06-19T12:32:26.577Z,47.30
2018-06-19T12:34:54.290Z,47.30
2018-06-19T12:40:15.436Z,47.40
2018-06-19T12:42:43.130Z,47.60
2018-06-19T12:45:10.748Z,46.80
2018-06-19T12:47:38.335Z,49.00
2018-06-19T12:52:18.711Z,48.80
2018-06-19T12:54:56.915Z,47.50
2018-06-19T12:57:24.486Z,47.60
2018-06-19T12:59:52.183Z,49.30
2018-06-19T13:02:19.999Z,47.40
2018-06-19T13:04:58.794Z,47.70
2018-06-19T13:07:26.712Z,47.10
2018-06-19T13:09:54.794Z,48.10
2018-06-19T13:14:40.803Z,47.30
2018-06-19T13:17:20.216Z,46.50
2018-06-19T13:19:58.978Z,47.80
2018-06-19T13:22:26.700Z,46.50
2018-06-19T13:24:54.548Z,47.60
2018-06-19T13:27:22.204Z,46.90
2018-06-19T13:30:06.210Z,46.60
2018-06-19T13:32:34.479Z,46.60
2018-06-19T13:35:08.324Z,45.70
2018-06-19T13:37:36.252Z,45.90
2018-06-19T13:41:16.355Z,45.40
2018-06-19T13:43:56.058Z,45.90
2018-06-19T13:46:23.718Z,46.70
2018-06-19T13:48:51.337Z,46.30
2018-06-19T13:51:18.898Z,47.00
2018-06-19T13:53:46.496Z,46.40
2018-06-19T13:57:25.558Z,46.10
2018-06-19T13:59:53.096Z,46.90
2018-06-19T14:02:20.618Z,47.00
2018-06-19T14:04:48.311Z,47.60
2018-06-19T14:07:16.029Z,46.00
2018-06-19T14:09:54.837Z,46.10
2018-06-19T14:13:01.265Z,47.60
2018-06-19T14:15:39.539Z,46.30
2018-06-19T14:18:07.350Z,44.70
2018-06-19T14:20:35.137Z,47.20
2018-06-19T14:23:02.738Z,45.90
2018-06-19T14:25:30.284Z,46.40
2018-06-19T14:27:57.887Z,45.70
2018-06-19T14:30:25.526Z,47.40
2018-06-19T14:32:53.096Z,47.00
2018-06-19T14:35:20.597Z,47.20
2018-06-19T14:37:48.185Z,47.30
2018-06-19T14:40:16.146Z,47.40
2018-06-19T14:42:43.790Z,46.90
2018-06-19T14:45:11.718Z,49.40
2018-06-19T14:47:39.445Z,47.40
2018-06-19T14:50:07.120Z,49.10
2018-06-19T14:52:34.711Z,47.50
2018-06-19T14:55:02.346Z,46.90
2018-06-19T14:57:29.967Z,48.40
2018-06-19T14:59:57.646Z,48.20
2018-06-19T15:05:33.596Z,48.60
2018-06-19T15:08:01.171Z,49.40
2018-06-19T15:10:28.709Z,49.10
2018-06-19T15:12:56.207Z,49.30
2018-06-19T15:15:23.714Z,47.20
2018-06-19T15:17:51.255Z,48.60
2018-06-19T15:20:18.802Z,48.20
2018-06-19T15:22:46.418Z,48.00
2018-06-19T15:25:13.935Z,47.90
2018-06-19T15:27:41.513Z,46.10
2018-06-19T15:30:09.016Z,46.10
2018-06-19T15:32:36.583Z,47.70
2018-06-19T15:35:04.227Z,46.70
2018-06-19T15:37:31.766Z,47.20
2018-06-19T15:39:59.264Z,47.40
2018-06-19T15:42:27.775Z,44.60
2018-06-19T15:44:55.315Z,45.80
2018-06-19T15:47:22.860Z,45.80
2018-06-19T15:49:50.493Z,44.00
2018-06-19T15:52:18.078Z,44.90
2018-06-19T15:54:45.589Z,45.70
2018-06-19T15:57:13.174Z,47.20
2018-06-19T15:59:40.712Z,48.20
2018-06-19T16:02:09.416Z,48.10
2018-06-19T16:04:37.090Z,48.20
2018-06-19T16:07:04.681Z,48.00
2018-06-19T16:09:32.225Z,46.70
2018-06-19T16:11:59.769Z,46.70
2018-06-19T16:14:27.303Z,47.10
2018-06-19T16:16:54.938Z,47.60
2018-06-19T16:19:22.590Z,45.10
2018-06-19T16:21:50.209Z,44.50
2018-06-19T16:24:17.789Z,45.80
2018-06-19T16:26:45.395Z,43.90
2018-06-19T16:29:12.911Z,45.20
2018-06-19T16:31:40.457Z,44.50
2018-06-19T16:34:07.994Z,45.70
2018-06-19T16:36:35.611Z,45.70
2018-06-19T16:39:05.227Z,46.40
2018-06-19T16:41:32.764Z,46.10
2018-06-19T16:44:00.314Z,46.20
2018-06-19T16:46:27.960Z,45.40
2018-06-19T16:48:55.506Z,44.40
2018-06-19T16:51:23.148Z,45.20
2018-06-19T16:53:50.810Z,45.50
2018-06-19T16:56:18.317Z,45.70
2018-06-19T16:58:45.838Z,44.50
2018-06-19T17:01:13.420Z,46.30
2018-06-19T17:03:41.018Z,47.00
2018-06-19T17:06:08.570Z,46.60
2018-06-19T17:08:36.155Z,47.30
2018-06-19T17:11:05.160Z,46.30
2018-06-19T17:13:32.720Z,47.40
2018-06-19T17:16:00.301Z,47.80
2018-06-19T17:18:27.819Z,47.60
2018-06-19T17:20:55.369Z,48.20
2018-06-19T17:23:22.898Z,48.50
2018-06-19T17:25:50.439Z,49.20
2018-06-19T17:28:18.010Z,49.50
2018-06-19T17:30:45.514Z,49.90
2018-06-19T17:33:13.038Z,48.80
2018-06-19T17:35:40.541Z,49.60
2018-06-19T17:38:08.159Z,48.70
2018-06-19T17:40:35.724Z,48.40
2018-06-19T17:43:03.272Z,48.70
2018-06-19T17:45:30.805Z,48.70
2018-06-19T17:47:58.391Z,48.90
2018-06-19T17:50:25.967Z,49.40
2018-06-19T17:52:53.482Z,50.00
2018-06-19T17:55:21.069Z,50.20
2018-06-19T17:57:50.661Z,50.70
2018-06-19T18:00:18.919Z,51.10
2018-06-19T18:02:46.632Z,51.10
2018-06-19T18:05:14.202Z,51.40
2018-06-19T18:07:41.846Z,51.90
2018-06-19T18:10:09.436Z,52.00
2018-06-19T18:12:38.001Z,52.40
2018-06-19T18:15:05.563Z,52.90
2018-06-19T18:17:33.060Z,53.40
2018-06-19T18:20:00.622Z,53.80
2018-06-19T18:22:28.222Z,54.10
2018-06-19T18:24:55.823Z,54.00
2018-06-19T18:27:23.387Z,54.30
2018-06-19T18:29:51.052Z,54.50
2018-06-19T18:32:18.732Z,55.10
2018-06-19T18:34:46.361Z,55.50
2018-06-19T18:37:13.997Z,54.60
2018-06-19T18:39:41.602Z,55.20
2018-06-19T18:42:09.286Z,54.80
2018-06-19T18:44:43.986Z,54.90
2018-06-19T18:47:11.888Z,55.20
2018-06-19T18:49:39.510Z,55.50
2018-06-19T18:52:07.127Z,55.80
2018-06-19T18:54:34.825Z,55.90
2018-06-19T18:57:02.583Z,56.00
2018-06-19T18:59:30.331Z,56.10
2018-06-19T19:01:58.146Z,56.50
2018-06-19T19:04:27.178Z,56.90
2018-06-19T19:06:54.890Z,56.90
2018-06-19T19:09:26.170Z,57.10
2018-06-19T19:11:53.920Z,57.40
2018-06-19T19:14:21.538Z,57.60
2018-06-19T19:17:07.450Z,57.90
2018-06-19T19:19:34.975Z,57.90
2018-06-19T19:22:02.681Z,57.60
2018-06-19T19:24:30.224Z,57.70
2018-06-19T19:27:03.477Z,57.70
2018-06-19T19:29:36.638Z,57.50
2018-06-19T19:32:04.262Z,57.60
2018-06-19T19:34:31.968Z,57.70
2018-06-19T19:37:05.185Z,57.80
2018-06-19T19:39:43.509Z,58.00
2018-06-19T19:42:11.153Z,58.00
2018-06-19T19:44:40.030Z,57.90
2018-06-19T19:47:13.602Z,58.00
2018-06-19T19:49:41.462Z,58.00
2018-06-19T19:52:09.160Z,58.00
2018-06-19T19:54:36.903Z,57.80
2018-06-19T19:57:12.804Z,57.90
2018-06-19T19:59:43.681Z,57.80
2018-06-19T20:02:11.263Z,58.10
2018-06-19T20:04:38.990Z,59.00
2018-06-19T20:07:12.358Z,58.10
2018-06-19T20:09:43.508Z,58.00
2018-06-19T20:12:11.871Z,58.00
2018-06-19T20:14:39.771Z,58.10
2018-06-19T20:20:06.963Z,58.20
2018-06-19T20:22:34.603Z,58.10
2018-06-19T20:25:07.300Z,58.20
2018-06-19T20:27:35.174Z,58.40
2018-06-19T20:30:03.936Z,58.50
2018-06-19T20:32:31.644Z,58.40
2018-06-19T20:34:59.634Z,58.70
2018-06-19T20:37:28.282Z,58.40
2018-06-19T20:39:55.838Z,58.30
2018-06-19T20:42:23.552Z,58.30
2018-06-19T20:44:51.217Z,58.40
2018-06-19T20:47:18.889Z,58.50
2018-06-19T20:49:46.853Z,58.50
2018-06-19T20:52:14.397Z,58.80
2018-06-19T20:54:41.986Z,58.70
2018-06-19T20:57:13.940Z,58.80
2018-06-19T20:59:42.649Z,59.10
2018-06-19T21:02:10.317Z,59.20
2018-06-19T21:04:41.773Z,59.30
2018-06-19T21:07:09.396Z,59.30
2018-06-19T21:09:37.530Z,59.50
2018-06-19T21:12:08.488Z,59.60
2018-06-19T21:14:36.030Z,59.90
2018-06-19T21:17:03.626Z,59.80
2018-06-19T21:19:31.201Z,59.70
2018-06-19T21:21:58.736Z,59.90
2018-06-19T21:24:26.308Z,59.90
2018-06-19T21:26:55.960Z,59.90
2018-06-19T21:29:23.506Z,59.90
2018-06-19T21:31:51.065Z,60.00
2018-06-19T21:34:18.611Z,59.80
2018-06-19T21:36:46.130Z,59.90
2018-06-19T21:39:13.709Z,60.10
2018-06-19T21:41:41.267Z,60.20
2018-06-19T21:44:08.804Z,60.20
2018-06-19T21:46:36.342Z,60.20
2018-06-19T21:49:03.885Z,60.20
2018-06-19T21:51:31.343Z,61.00
2018-06-19T21:53:58.840Z,60.30
2018-06-19T21:56:27.419Z,60.60
2018-06-19T21:58:54.976Z,60.70
2018-06-19T22:01:22.578Z,60.60
2018-06-19T22:03:50.041Z,60.70
2018-06-19T22:06:17.548Z,61.20
2018-06-19T22:08:51.030Z,61.40
2018-06-19T22:11:18.653Z,61.70
2018-06-19T22:13:46.487Z,61.60
2018-06-19T22:16:14.096Z,61.60
2018-06-19T22:18:41.630Z,61.90
2018-06-19T22:21:09.174Z,62.00
2018-06-19T22:23:36.863Z,62.50
2018-06-19T22:26:04.652Z,62.60
2018-06-19T22:28:34.456Z,62.70
2018-06-19T22:31:02.016Z,62.40
2018-06-19T22:33:29.529Z,63.20
2018-06-19T22:35:57.124Z,63.00
2018-06-19T22:38:24.746Z,62.90
2018-06-19T22:40:52.300Z,63.40
2018-06-19T22:43:19.817Z,63.10
2018-06-19T22:45:47.448Z,62.90
2018-06-19T22:48:15.020Z,63.00
2018-06-19T22:50:42.620Z,63.10
2018-06-19T22:56:05.562Z,63.50
2018-06-19T22:58:33.106Z,63.50
2018-06-19T23:01:00.735Z,63.70
2018-06-19T23:03:28.202Z,63.30
2018-06-19T23:05:55.768Z,63.10
2018-06-19T23:08:23.402Z,63.80
2018-06-19T23:10:50.924Z,63.90
2018-06-19T23:13:18.549Z,64.10
2018-06-19T23:15:46.164Z,64.30
2018-06-19T23:18:14.826Z,64.60
2018-06-19T23:20:42.362Z,64.40
2018-06-19T23:23:10.055Z,64.60
2018-06-19T23:25:37.576Z,64.00
2018-06-19T23:28:05.151Z,64.20
2018-06-19T23:30:32.646Z,64.70
2018-06-19T23:33:00.240Z,65.00
2018-06-19T23:35:27.824Z,65.00
2018-06-19T23:37:55.340Z,65.20
2018-06-19T23:40:22.858Z,65.20
2018-06-19T23:42:50.406Z,65.60
2018-06-19T23:45:17.989Z,65.70
2018-06-19T23:47:46.720Z,66.00
2018-06-19T23:50:14.266Z,65.80
2018-06-19T23:52:41.854Z,65.70
2018-06-19T23:55:09.400Z,65.60
2018-06-19T23:57:36.881Z,65.80
